createdAt,value
2019-03-28T00:01:22.715Z,62.45
2019-03-28T00:04:24.617Z,62.28
2019-03-28T00:07:27.240Z,62.39
2019-03-28T00:10:29.227Z,62.53
2019-03-28T00:13:31.119Z,62.82
2019-03-28T00:16:33.110Z,62.85
2019-03-28T00:19:35.059Z,63.13
2019-03-28T00:22:55.399Z,63.28
2019-03-28T00:25:57.279Z,63.14
2019-03-28T00:28:59.230Z,63.27
2019-03-28T00:32:01.107Z,63.66
2019-03-28T00:35:05.076Z,63.69
2019-03-28T00:38:06.933Z,63.93
2019-03-28T00:41:08.870Z,64.26
2019-03-28T00:44:10.785Z,64.68
2019-03-28T00:47:12.819Z,64.72
2019-03-28T00:50:15.017Z,64.95
2019-03-28T00:53:16.995Z,65.00
2019-03-28T00:56:18.911Z,64.85
2019-03-28T00:59:20.832Z,64.89
2019-03-28T01:02:22.712Z,64.68
2019-03-28T01:05:24.609Z,65.03
2019-03-28T01:08:26.608Z,64.61
2019-03-28T01:11:28.503Z,64.56
2019-03-28T01:14:30.414Z,64.52
2019-03-28T01:17:32.382Z,64.30
2019-03-28T01:20:34.303Z,64.29
2019-03-28T01:23:36.243Z,64.26
2019-03-28T01:26:38.082Z,64.31
2019-03-28T01:29:40.068Z,64.10
2019-03-28T01:32:41.943Z,64.20
2019-03-28T01:35:43.867Z,64.22
2019-03-28T01:38:45.701Z,64.25
2019-03-28T01:41:47.629Z,64.00
2019-03-28T01:44:49.494Z,63.84
2019-03-28T01:47:51.425Z,63.79
2019-03-28T01:50:53.470Z,63.66
2019-03-28T01:53:55.402Z,64.46
2019-03-28T01:57:10.006Z,64.79
2019-03-28T02:00:01.106Z,64.87
2019-03-28T02:03:03.014Z,64.91
2019-03-28T02:06:04.939Z,64.74
2019-03-28T02:09:06.902Z,64.63
2019-03-28T02:12:08.856Z,64.58
2019-03-28T02:15:11.060Z,64.75
2019-03-28T02:18:13.011Z,64.91
2019-03-28T02:21:15.002Z,64.89
2019-03-28T02:24:16.909Z,65.00
2019-03-28T02:27:24.169Z,65.18
2019-03-28T02:30:31.125Z,65.16
2019-03-28T02:33:33.055Z,65.53
2019-03-28T02:36:35.045Z,65.76
2019-03-28T02:39:36.928Z,65.60
2019-03-28T02:42:38.807Z,65.54
2019-03-28T02:45:40.664Z,65.44
2019-03-28T02:48:42.561Z,65.50
2019-03-28T02:51:44.594Z,65.48
2019-03-28T02:54:46.505Z,65.35
2019-03-28T02:57:48.374Z,65.21
2019-03-28T03:00:50.253Z,65.20
2019-03-28T03:03:52.111Z,65.21
2019-03-28T03:06:54.079Z,65.15
2019-03-28T03:09:56.109Z,64.97
2019-03-28T03:12:58.023Z,65.11
2019-03-28T03:16:00.093Z,64.91
2019-03-28T03:19:02.020Z,64.88
2019-03-28T03:22:03.956Z,65.01
2019-03-28T03:25:06.459Z,64.99
2019-03-28T03:28:08.299Z,65.16
2019-03-28T03:31:10.252Z,65.14
2019-03-28T03:34:12.203Z,65.07
2019-03-28T03:37:14.128Z,64.99
2019-03-28T03:40:16.118Z,65.32
2019-03-28T03:43:18.058Z,65.68
2019-03-28T03:46:19.974Z,65.74
2019-03-28T03:49:21.908Z,65.85
2019-03-28T03:52:23.969Z,65.93
2019-03-28T03:55:25.922Z,66.13
2019-03-28T03:58:27.811Z,65.77
2019-03-28T04:01:29.743Z,65.91
2019-03-28T04:04:31.654Z,66.08
2019-03-28T04:07:33.496Z,66.20
2019-03-28T04:10:35.763Z,66.18
2019-03-28T04:13:37.684Z,66.31
2019-03-28T04:16:39.579Z,66.42
2019-03-28T04:19:41.512Z,66.56
2019-03-28T04:22:43.471Z,66.61
2019-03-28T04:25:45.385Z,66.52
2019-03-28T04:28:47.260Z,66.57
2019-03-28T04:31:49.224Z,66.68
2019-03-28T04:34:51.196Z,67.00
2019-03-28T04:37:53.153Z,67.16
2019-03-28T04:40:55.045Z,67.36
2019-03-28T04:43:56.942Z,67.53
2019-03-28T04:46:59.972Z,67.90
2019-03-28T04:50:01.863Z,67.79
2019-03-28T04:53:03.859Z,67.96
2019-03-28T04:56:05.778Z,67.92
2019-03-28T04:59:07.643Z,67.99
2019-03-28T05:02:09.587Z,68.23
2019-03-28T05:05:11.523Z,68.52
2019-03-28T05:08:13.450Z,68.47
2019-03-28T05:11:15.576Z,68.18
2019-03-28T05:14:17.571Z,68.47
2019-03-28T05:17:19.473Z,68.64
2019-03-28T05:20:21.428Z,68.48
2019-03-28T05:23:23.503Z,68.46
2019-03-28T05:26:25.473Z,68.38
2019-03-28T05:29:27.391Z,68.81
2019-03-28T05:32:30.300Z,68.70
2019-03-28T05:35:32.244Z,68.63
2019-03-28T05:38:34.587Z,68.62
2019-03-28T05:41:36.755Z,68.87
2019-03-28T05:44:38.698Z,68.76
2019-03-28T05:47:40.615Z,68.68
2019-03-28T05:50:42.545Z,68.77
2019-03-28T05:53:44.669Z,68.44
2019-03-28T05:56:46.582Z,68.62
2019-03-28T05:59:48.502Z,68.69
2019-03-28T06:02:50.571Z,68.50
2019-03-28T06:05:52.741Z,68.60
2019-03-28T06:08:54.659Z,68.32
2019-03-28T06:11:57.031Z,68.26
2019-03-28T06:14:59.009Z,68.00
2019-03-28T06:18:00.953Z,68.03
2019-03-28T06:21:03.987Z,67.94
2019-03-28T06:24:05.924Z,68.03
2019-03-28T06:27:07.832Z,68.04
2019-03-28T06:30:10.328Z,68.03
2019-03-28T06:33:12.315Z,67.85
2019-03-28T06:36:14.412Z,67.54
2019-03-28T06:39:16.864Z,67.27
2019-03-28T06:42:18.791Z,67.15
2019-03-28T06:45:20.803Z,67.32
2019-03-28T06:48:22.701Z,67.37
2019-03-28T06:51:24.648Z,67.23
2019-03-28T06:54:26.791Z,66.83
2019-03-28T06:57:28.725Z,66.82
2019-03-28T07:00:30.659Z,66.58
2019-03-28T07:03:32.601Z,66.55
2019-03-28T07:06:34.475Z,66.33
2019-03-28T07:09:36.440Z,65.85
2019-03-28T07:12:38.864Z,66.17
2019-03-28T07:15:40.812Z,66.00
2019-03-28T07:18:42.707Z,65.97
2019-03-28T07:21:44.653Z,65.49
2019-03-28T07:24:46.643Z,64.88
2019-03-28T07:27:48.617Z,64.78
2019-03-28T07:30:50.517Z,64.69
2019-03-28T07:33:52.476Z,64.96
2019-03-28T07:36:54.368Z,65.00
2019-03-28T07:39:56.311Z,64.92
2019-03-28T07:42:58.171Z,64.87
2019-03-28T07:46:00.180Z,64.52
2019-03-28T07:49:02.114Z,64.34
2019-03-28T07:52:04.081Z,64.26
2019-03-28T07:55:06.707Z,64.30
2019-03-28T07:58:09.192Z,64.27
2019-03-28T08:01:11.341Z,64.32
2019-03-28T08:04:13.425Z,63.98
2019-03-28T08:07:15.327Z,63.64
2019-03-28T08:10:17.296Z,63.52
2019-03-28T08:13:19.580Z,63.55
2019-03-28T08:16:21.552Z,63.22
2019-03-28T08:19:23.486Z,62.89
2019-03-28T08:22:25.421Z,62.80
2019-03-28T08:25:27.413Z,61.98
2019-03-28T08:28:29.321Z,61.60
2019-03-28T08:31:31.300Z,61.16
2019-03-28T08:34:33.240Z,60.90
2019-03-28T08:37:35.999Z,60.94
2019-03-28T08:40:41.369Z,60.44
2019-03-28T08:43:43.277Z,59.79
2019-03-28T08:46:45.210Z,59.32
2019-03-28T08:49:47.109Z,59.25
2019-03-28T08:52:49.080Z,58.48
2019-03-28T08:55:51.270Z,58.66
2019-03-28T08:58:53.234Z,58.71
2019-03-28T09:01:55.140Z,58.59
2019-03-28T09:04:57.155Z,58.29
2019-03-28T09:07:59.633Z,57.67
2019-03-28T09:11:01.606Z,57.69
2019-03-28T09:14:04.090Z,56.97
2019-03-28T09:17:06.065Z,57.36
2019-03-28T09:20:08.490Z,57.20
2019-03-28T09:23:10.414Z,57.34
2019-03-28T09:26:12.374Z,54.45
2019-03-28T09:29:14.374Z,55.14
2019-03-28T09:32:16.357Z,53.56
2019-03-28T09:35:29.252Z,52.01
2019-03-28T09:38:31.322Z,51.81
2019-03-28T09:41:33.261Z,51.22
2019-03-28T09:44:35.150Z,52.08
2019-03-28T09:47:37.121Z,51.80
2019-03-28T09:50:39.020Z,49.99
2019-03-28T09:53:41.041Z,47.54
2019-03-28T09:56:43.076Z,47.59
2019-03-28T09:59:45.079Z,47.55
2019-03-28T10:02:47.038Z,48.21
2019-03-28T10:05:49.039Z,48.71
2019-03-28T10:08:50.970Z,48.84
2019-03-28T10:11:52.922Z,48.80
2019-03-28T10:14:55.277Z,48.38
2019-03-28T10:17:57.226Z,47.90
2019-03-28T10:20:59.190Z,46.97
2019-03-28T10:24:01.111Z,47.25
2019-03-28T10:27:03.065Z,47.15
2019-03-28T10:30:07.679Z,46.29
2019-03-28T10:33:10.677Z,45.81
2019-03-28T10:36:12.636Z,46.76
2019-03-28T10:39:14.579Z,46.35
2019-03-28T10:42:16.507Z,46.09
2019-03-28T10:45:18.420Z,46.00
2019-03-28T10:48:23.378Z,45.12
2019-03-28T10:51:24.219Z,45.45
2019-03-28T10:54:26.223Z,45.63
2019-03-28T10:57:30.281Z,45.84
2019-03-28T11:00:32.422Z,46.29
2019-03-28T11:03:34.361Z,46.24
2019-03-28T11:06:36.305Z,45.25
2019-03-28T11:09:38.221Z,45.29
2019-03-28T11:12:40.193Z,45.25
2019-03-28T11:15:42.543Z,45.28
2019-03-28T11:18:44.462Z,44.94
2019-03-28T11:21:46.502Z,44.29
2019-03-28T11:24:48.441Z,43.17
2019-03-28T11:27:50.358Z,43.17
2019-03-28T11:30:52.407Z,43.03
2019-03-28T11:33:54.304Z,42.87
2019-03-28T11:36:56.394Z,42.96
2019-03-28T11:39:58.319Z,43.06
2019-03-28T11:43:00.779Z,43.86
2019-03-28T11:46:02.883Z,43.38
2019-03-28T11:49:04.883Z,42.91
2019-03-28T11:52:06.785Z,42.34
2019-03-28T11:55:08.898Z,41.71
2019-03-28T11:58:11.640Z,42.88
2019-03-28T12:01:13.993Z,43.40
2019-03-28T12:04:15.939Z,43.33
2019-03-28T12:07:17.952Z,43.13
2019-03-28T12:10:19.915Z,42.97
2019-03-28T12:13:21.843Z,42.58
2019-03-28T12:16:24.000Z,42.32
2019-03-28T12:19:26.026Z,42.20
2019-03-28T12:22:27.990Z,41.91
2019-03-28T12:25:30.000Z,41.29
2019-03-28T12:28:32.011Z,41.46
2019-03-28T12:31:33.991Z,41.69
2019-03-28T12:34:35.953Z,41.84
2019-03-28T12:37:38.985Z,42.78
2019-03-28T12:40:40.970Z,43.39
2019-03-28T12:43:42.979Z,42.91
2019-03-28T12:46:45.083Z,43.74
2019-03-28T12:49:47.087Z,43.86
2019-03-28T12:52:48.986Z,44.03
2019-03-28T12:55:50.952Z,43.88
2019-03-28T12:58:52.969Z,44.25
2019-03-28T13:01:55.246Z,44.77
2019-03-28T13:04:57.629Z,44.83
2019-03-28T13:07:59.587Z,44.61
2019-03-28T13:11:01.499Z,44.12
2019-03-28T13:14:03.398Z,44.56
2019-03-28T13:17:05.754Z,43.99
2019-03-28T13:20:09.440Z,43.80
2019-03-28T13:23:12.677Z,43.46
2019-03-28T13:26:14.592Z,42.82
2019-03-28T13:29:16.585Z,42.41
2019-03-28T13:32:18.586Z,41.79
2019-03-28T13:35:20.554Z,41.24
2019-03-28T13:38:22.547Z,41.22
2019-03-28T13:41:24.430Z,41.23
2019-03-28T13:44:26.380Z,41.09
2019-03-28T13:47:28.313Z,41.12
2019-03-28T13:50:30.280Z,41.21
2019-03-28T13:53:39.246Z,41.11
2019-03-28T13:56:38.511Z,41.02
2019-03-28T13:59:41.294Z,41.10
2019-03-28T14:02:54.870Z,41.16
2019-03-28T14:05:47.139Z,41.03
2019-03-28T14:08:49.101Z,41.11
2019-03-28T14:11:51.054Z,41.04
2019-03-28T14:14:53.224Z,41.08
2019-03-28T14:17:56.697Z,40.98
2019-03-28T14:20:58.679Z,41.39
2019-03-28T14:24:00.576Z,41.61
2019-03-28T14:27:02.517Z,42.10
2019-03-28T14:30:09.445Z,42.16
2019-03-28T14:33:13.011Z,42.01
2019-03-28T14:36:15.730Z,41.64
2019-03-28T14:39:17.662Z,41.70
2019-03-28T14:42:20.089Z,41.62
2019-03-28T14:45:22.339Z,41.64
2019-03-28T14:48:24.259Z,41.58
2019-03-28T14:51:26.280Z,41.89
2019-03-28T14:54:28.415Z,41.73
2019-03-28T14:57:31.964Z,41.95
2019-03-28T15:00:40.799Z,42.46
2019-03-28T15:03:42.729Z,42.72
2019-03-28T15:06:44.628Z,42.63
2019-03-28T15:09:46.547Z,42.60
2019-03-28T15:12:48.483Z,42.69
2019-03-28T15:15:50.483Z,42.91
2019-03-28T15:18:52.429Z,43.01
2019-03-28T15:21:54.395Z,43.14
2019-03-28T15:24:57.790Z,43.39
2019-03-28T15:28:00.108Z,43.30
2019-03-28T15:31:02.077Z,43.46
2019-03-28T15:34:03.982Z,43.62
2019-03-28T15:37:05.963Z,43.76
2019-03-28T15:40:09.120Z,44.13
2019-03-28T15:43:11.033Z,44.29
2019-03-28T15:46:16.068Z,44.36
2019-03-28T15:49:18.046Z,44.78
2019-03-28T15:52:20.081Z,44.78
2019-03-28T15:55:21.994Z,45.05
2019-03-28T15:58:24.028Z,45.18
2019-03-28T16:01:26.154Z,45.25
2019-03-28T16:04:28.077Z,45.18
2019-03-28T16:07:29.986Z,44.73
2019-03-28T16:10:31.908Z,44.34
2019-03-28T16:13:33.875Z,43.72
2019-03-28T16:16:35.847Z,44.08
2019-03-28T16:19:37.837Z,43.95
2019-03-28T16:22:39.931Z,43.98
2019-03-28T16:25:43.001Z,44.22
2019-03-28T16:28:44.956Z,44.23
2019-03-28T16:31:46.869Z,44.41
2019-03-28T16:34:48.883Z,44.37
2019-03-28T16:37:51.179Z,44.34
2019-03-28T16:40:53.691Z,44.49
2019-03-28T16:43:55.634Z,44.62
2019-03-28T16:46:57.602Z,45.08
2019-03-28T16:49:59.526Z,45.54
2019-03-28T16:53:01.512Z,45.87
2019-03-28T16:56:04.325Z,45.76
2019-03-28T16:59:06.315Z,45.90
2019-03-28T17:02:08.373Z,46.25
2019-03-28T17:05:10.360Z,46.66
2019-03-28T17:08:13.970Z,47.11
2019-03-28T17:11:16.973Z,47.66
2019-03-28T17:14:18.948Z,48.13
2019-03-28T17:17:22.386Z,48.50
2019-03-28T17:20:26.832Z,48.68
2019-03-28T17:23:28.845Z,48.91
2019-03-28T17:26:31.853Z,49.06
2019-03-28T17:29:34.660Z,49.45
2019-03-28T17:32:37.292Z,49.67
2019-03-28T17:35:40.876Z,49.82
2019-03-28T17:38:42.821Z,50.06
2019-03-28T17:41:45.127Z,50.24
2019-03-28T17:44:47.085Z,50.40
2019-03-28T17:47:50.504Z,50.52
2019-03-28T17:50:52.433Z,50.74
2019-03-28T17:53:56.155Z,50.89
2019-03-28T17:56:58.269Z,51.17
2019-03-28T18:00:00.479Z,51.45
2019-03-28T18:03:09.163Z,51.59
2019-03-28T18:06:06.644Z,51.86
2019-03-28T18:09:11.068Z,52.18
2019-03-28T18:12:14.432Z,52.64
2019-03-28T18:15:18.148Z,52.87
2019-03-28T18:18:20.257Z,52.77
2019-03-28T18:21:23.380Z,52.68
2019-03-28T18:24:25.365Z,52.54
2019-03-28T18:27:27.278Z,52.60
2019-03-28T18:30:29.219Z,52.64
2019-03-28T18:33:33.233Z,52.74
2019-03-28T18:36:36.631Z,52.76
2019-03-28T18:39:38.794Z,52.86
2019-03-28T18:42:42.710Z,53.01
2019-03-28T18:45:46.483Z,53.10
2019-03-28T18:48:48.483Z,53.37
2019-03-28T18:51:50.368Z,53.57
2019-03-28T18:54:55.507Z,53.88
2019-03-28T18:57:59.960Z,54.09
2019-03-28T19:01:05.126Z,54.37
2019-03-28T19:04:07.456Z,54.68
2019-03-28T19:07:10.003Z,54.97
2019-03-28T19:10:12.794Z,55.14
2019-03-28T19:13:16.884Z,55.36
2019-03-28T19:16:21.598Z,55.59
2019-03-28T19:19:38.349Z,55.77
2019-03-28T19:22:28.731Z,55.98
2019-03-28T19:25:30.724Z,56.09
2019-03-28T19:28:34.418Z,56.33
2019-03-28T19:31:36.397Z,56.49
2019-03-28T19:34:43.857Z,56.69
2019-03-28T19:37:45.948Z,56.78
2019-03-28T19:40:48.553Z,56.79
2019-03-28T19:43:52.343Z,56.90
2019-03-28T19:46:57.228Z,57.18
2019-03-28T19:49:59.266Z,57.25
2019-03-28T19:53:02.361Z,57.59
2019-03-28T19:56:05.788Z,57.70
2019-03-28T19:59:09.205Z,58.16
2019-03-28T20:02:14.208Z,58.63
2019-03-28T20:05:18.368Z,58.98
2019-03-28T20:08:20.369Z,59.13
2019-03-28T20:11:22.584Z,59.27
2019-03-28T20:14:24.668Z,59.29
2019-03-28T20:17:27.693Z,59.49
2019-03-28T20:20:29.661Z,59.78
2019-03-28T20:23:35.388Z,59.89
2019-03-28T20:26:36.564Z,60.03
2019-03-28T20:29:39.945Z,60.15
2019-03-28T20:32:42.769Z,60.36
2019-03-28T20:35:45.386Z,60.57
2019-03-28T20:38:53.308Z,60.74
2019-03-28T20:41:51.242Z,60.90
2019-03-28T20:44:55.001Z,61.06
2019-03-28T20:47:56.923Z,61.19
2019-03-28T20:51:03.431Z,61.34
2019-03-28T20:54:07.744Z,61.44
2019-03-28T20:57:09.984Z,61.68
2019-03-28T21:00:13.248Z,61.87
2019-03-28T21:03:17.013Z,61.88
2019-03-28T21:06:20.987Z,62.12
2019-03-28T21:09:23.037Z,62.10
2019-03-28T21:12:24.951Z,62.18
2019-03-28T21:15:26.928Z,62.01
2019-03-28T21:18:28.831Z,62.02
2019-03-28T21:21:31.020Z,62.12
2019-03-28T21:24:33.248Z,62.24
2019-03-28T21:27:35.230Z,62.29
2019-03-28T21:30:47.202Z,62.74
2019-03-28T21:33:41.010Z,62.90
2019-03-28T21:36:43.346Z,63.25
2019-03-28T21:39:45.333Z,63.02
2019-03-28T21:42:47.249Z,63.41
2019-03-28T21:45:49.188Z,63.61
2019-03-28T21:48:51.109Z,63.81
2019-03-28T21:51:53.093Z,63.75
2019-03-28T21:54:54.994Z,63.65
2019-03-28T21:57:56.930Z,63.76
2019-03-28T22:01:00.682Z,64.06
2019-03-28T22:04:02.692Z,64.24
2019-03-28T22:07:05.933Z,64.64
2019-03-28T22:10:09.253Z,65.09
2019-03-28T22:13:12.344Z,64.80
2019-03-28T22:16:14.467Z,64.75
2019-03-28T22:19:16.366Z,65.03
2019-03-28T22:22:18.328Z,65.48
2019-03-28T22:25:20.634Z,65.69
2019-03-28T22:28:22.573Z,65.89
2019-03-28T22:31:24.508Z,65.86
2019-03-28T22:34:26.494Z,65.81
2019-03-28T22:37:28.886Z,65.97
2019-03-28T22:40:31.249Z,65.83
2019-03-28T22:43:33.298Z,65.82
2019-03-28T22:46:39.169Z,66.06
2019-03-28T22:49:39.115Z,66.04
2019-03-28T22:52:41.052Z,66.06
2019-03-28T22:55:42.934Z,66.25
2019-03-28T22:58:44.936Z,66.15
2019-03-28T23:01:46.835Z,66.03
2019-03-28T23:04:48.768Z,66.15
2019-03-28T23:07:50.794Z,66.04
2019-03-28T23:10:52.768Z,66.26
2019-03-28T23:13:54.675Z,66.65
2019-03-28T23:16:56.587Z,66.73
2019-03-28T23:19:58.522Z,66.64
2019-03-28T23:23:00.449Z,66.64
2019-03-28T23:26:02.449Z,67.22
2019-03-28T23:29:04.446Z,67.20
2019-03-28T23:32:06.367Z,67.30
2019-03-28T23:35:08.506Z,67.41
2019-03-28T23:38:10.473Z,67.76
2019-03-28T23:41:12.456Z,67.90
2019-03-28T23:44:14.318Z,67.65
2019-03-28T23:47:16.258Z,67.93
2019-03-28T23:50:18.137Z,67.80
2019-03-28T23:53:20.076Z,67.81
2019-03-28T23:56:22.008Z,68.10
2019-03-28T23:59:23.943Z,67.87
